sensor_id;sensor_type;location;lat;lon;timestamp;P1;durP1;ratioP1;P2;durP2;ratioP2
50575;SDS011;76633;45.642;12.198;2024-03-23T00:55:33;25.10;;;22.00;;
50575;SDS011;76633;45.642;12.198;2024-03-23T00:57:58;22.33;;;20.15;;
50575;SDS011;76633;45.642;12.198;2024-03-23T01:00:24;22.90;;;20.67;;
50575;SDS011;76633;45.642;12.198;2024-03-23T01:02:50;28.08;;;20.27;;
50575;SDS011;76633;45.642;12.198;2024-03-23T01:05:15;22.27;;;20.10;;
50575;SDS011;76633;45.642;12.198;2024-03-23T01:07:41;24.45;;;20.83;;
50575;SDS011;76633;45.642;12.198;2024-03-23T01:10:07;22.60;;;20.23;;
50575;SDS011;76633;45.642;12.198;2024-03-23T01:12:33;22.90;;;20.50;;
50575;SDS011;76633;45.642;12.198;2024-03-23T01:14:58;22.67;;;20.27;;
50575;SDS011;76633;45.642;12.198;2024-03-23T01:17:24;23.52;;;20.92;;
50575;SDS011;76633;45.642;12.198;2024-03-23T01:19:49;23.45;;;21.08;;
50575;SDS011;76633;45.642;12.198;2024-03-23T01:22:15;23.85;;;21.38;;
50575;SDS011;76633;45.642;12.198;2024-03-23T01:24:41;24.38;;;21.88;;
50575;SDS011;76633;45.642;12.198;2024-03-23T01:27:06;23.70;;;21.20;;
50575;SDS011;76633;45.642;12.198;2024-03-23T01:29:33;24.35;;;21.95;;
50575;SDS011;76633;45.642;12.198;2024-03-23T01:31:59;23.88;;;20.98;;
50575;SDS011;76633;45.642;12.198;2024-03-23T01:34:25;26.83;;;21.75;;
50575;SDS011;76633;45.642;12.198;2024-03-23T01:36:50;27.48;;;24.63;;
50575;SDS011;76633;45.642;12.198;2024-03-23T01:39:16;28.25;;;24.45;;
50575;SDS011;76633;45.642;12.198;2024-03-23T01:41:42;27.85;;;24.88;;
50575;SDS011;76633;45.642;12.198;2024-03-23T01:44:08;29.58;;;26.13;;
50575;SDS011;76633;45.642;12.198;2024-03-23T01:46:37;30.45;;;26.30;;
50575;SDS011;76633;45.642;12.198;2024-03-23T01:49:06;30.92;;;26.65;;
50575;SDS011;76633;45.642;12.198;2024-03-23T01:51:33;33.78;;;26.63;;
50575;SDS011;76633;45.642;12.198;2024-03-23T01:54:01;30.45;;;25.83;;
50575;SDS011;76633;45.642;12.198;2024-03-23T01:56:37;29.42;;;26.33;;
50575;SDS011;76633;45.642;12.198;2024-03-23T01:59:03;32.75;;;26.30;;
50575;SDS011;76633;45.642;12.198;2024-03-23T02:01:30;35.42;;;26.98;;
50575;SDS011;76633;45.642;12.198;2024-03-23T02:03:57;29.45;;;26.25;;
50575;SDS011;76633;45.642;12.198;2024-03-23T02:06:23;30.38;;;26.73;;
50575;SDS011;76633;45.642;12.198;2024-03-23T02:08:50;30.08;;;26.60;;
50575;SDS011;76633;45.642;12.198;2024-03-23T02:11:15;31.85;;;26.60;;
50575;SDS011;76633;45.642;12.198;2024-03-23T02:13:41;31.23;;;26.35;;
50575;SDS011;76633;45.642;12.198;2024-03-23T02:16:07;30.17;;;26.35;;
50575;SDS011;76633;45.642;12.198;2024-03-23T02:18:33;30.60;;;26.38;;
50575;SDS011;76633;45.642;12.198;2024-03-23T02:20:58;32.13;;;27.17;;
50575;SDS011;76633;45.642;12.198;2024-03-23T02:23:24;30.13;;;26.92;;
50575;SDS011;76633;45.642;12.198;2024-03-23T02:25:50;31.48;;;27.33;;
50575;SDS011;76633;45.642;12.198;2024-03-23T02:28:16;31.08;;;26.92;;
50575;SDS011;76633;45.642;12.198;2024-03-23T02:30:45;32.85;;;27.17;;
50575;SDS011;76633;45.642;12.198;2024-03-23T02:33:10;33.67;;;28.52;;
50575;SDS011;76633;45.642;12.198;2024-03-23T02:35:36;33.60;;;29.55;;
50575;SDS011;76633;45.642;12.198;2024-03-23T02:38:02;35.92;;;30.58;;
50575;SDS011;76633;45.642;12.198;2024-03-23T02:40:28;34.60;;;29.83;;
50575;SDS011;76633;45.642;12.198;2024-03-23T02:42:54;38.75;;;30.23;;
50575;SDS011;76633;45.642;12.198;2024-03-23T02:45:20;37.22;;;32.33;;
50575;SDS011;76633;45.642;12.198;2024-03-23T02:47:45;35.30;;;31.67;;
50575;SDS011;76633;45.642;12.198;2024-03-23T02:50:11;38.83;;;32.83;;
50575;SDS011;76633;45.642;12.198;2024-03-23T02:52:37;40.70;;;32.35;;
50575;SDS011;76633;45.642;12.198;2024-03-23T02:55:03;36.90;;;31.95;;
50575;SDS011;76633;45.642;12.198;2024-03-23T02:57:29;40.78;;;31.50;;
50575;SDS011;76633;45.642;12.198;2024-03-23T02:59:54;38.88;;;32.25;;
50575;SDS011;76633;45.642;12.198;2024-03-23T03:02:20;41.05;;;32.60;;
50575;SDS011;76633;45.642;12.198;2024-03-23T03:04:46;34.92;;;30.77;;
50575;SDS011;76633;45.642;12.198;2024-03-23T03:07:12;36.50;;;31.55;;
50575;SDS011;76633;45.642;12.198;2024-03-23T03:09:38;38.35;;;32.97;;
50575;SDS011;76633;45.642;12.198;2024-03-23T03:12:05;40.13;;;31.98;;
50575;SDS011;76633;45.642;12.198;2024-03-23T03:14:31;36.58;;;31.90;;
50575;SDS011;76633;45.642;12.198;2024-03-23T03:16:57;38.00;;;31.80;;
50575;SDS011;76633;45.642;12.198;2024-03-23T03:19:23;35.85;;;31.88;;
50575;SDS011;76633;45.642;12.198;2024-03-23T03:21:48;34.80;;;31.02;;
50575;SDS011;76633;45.642;12.198;2024-03-23T03:24:14;34.13;;;30.27;;
50575;SDS011;76633;45.642;12.198;2024-03-23T03:26:40;36.92;;;30.88;;
50575;SDS011;76633;45.642;12.198;2024-03-23T03:29:06;38.10;;;30.85;;
50575;SDS011;76633;45.642;12.198;2024-03-23T03:31:31;36.67;;;31.35;;
50575;SDS011;76633;45.642;12.198;2024-03-23T03:33:57;35.22;;;30.38;;
50575;SDS011;76633;45.642;12.198;2024-03-23T03:36:23;34.08;;;30.27;;
50575;SDS011;76633;45.642;12.198;2024-03-23T03:38:48;33.50;;;30.00;;
50575;SDS011;76633;45.642;12.198;2024-03-23T03:41:14;34.72;;;31.20;;
50575;SDS011;76633;45.642;12.198;2024-03-23T03:43:40;36.17;;;32.30;;
50575;SDS011;76633;45.642;12.198;2024-03-23T03:46:06;32.42;;;29.10;;
50575;SDS011;76633;45.642;12.198;2024-03-23T03:48:33;33.97;;;30.23;;
50575;SDS011;76633;45.642;12.198;2024-03-23T03:50:59;38.53;;;30.48;;
50575;SDS011;76633;45.642;12.198;2024-03-23T03:53:25;32.63;;;29.35;;
50575;SDS011;76633;45.642;12.198;2024-03-23T03:55:51;33.28;;;29.67;;
50575;SDS011;76633;45.642;12.198;2024-03-23T03:58:17;32.63;;;29.17;;
50575;SDS011;76633;45.642;12.198;2024-03-23T04:00:42;35.08;;;31.33;;
50575;SDS011;76633;45.642;12.198;2024-03-23T04:03:08;34.60;;;30.33;;
50575;SDS011;76633;45.642;12.198;2024-03-23T04:05:34;33.75;;;30.08;;
50575;SDS011;76633;45.642;12.198;2024-03-23T04:07:59;34.90;;;30.45;;
50575;SDS011;76633;45.642;12.198;2024-03-23T04:10:25;36.60;;;32.70;;
50575;SDS011;76633;45.642;12.198;2024-03-23T04:12:51;35.55;;;31.60;;
50575;SDS011;76633;45.642;12.198;2024-03-23T04:15:18;35.47;;;31.48;;
50575;SDS011;76633;45.642;12.198;2024-03-23T04:17:45;36.33;;;31.05;;
50575;SDS011;76633;45.642;12.198;2024-03-23T04:20:10;36.45;;;32.05;;
50575;SDS011;76633;45.642;12.198;2024-03-23T04:22:38;36.15;;;32.22;;
50575;SDS011;76633;45.642;12.198;2024-03-23T04:25:05;37.08;;;33.20;;
50575;SDS011;76633;45.642;12.198;2024-03-23T04:27:38;37.75;;;32.03;;
50575;SDS011;76633;45.642;12.198;2024-03-23T04:30:04;36.50;;;32.55;;
50575;SDS011;76633;45.642;12.198;2024-03-23T04:32:35;37.92;;;33.05;;
50575;SDS011;76633;45.642;12.198;2024-03-23T04:35:01;36.28;;;32.53;;
50575;SDS011;76633;45.642;12.198;2024-03-23T04:37:28;35.83;;;31.75;;
50575;SDS011;76633;45.642;12.198;2024-03-23T04:39:54;36.67;;;32.78;;
50575;SDS011;76633;45.642;12.198;2024-03-23T04:42:19;40.25;;;34.05;;
50575;SDS011;76633;45.642;12.198;2024-03-23T04:44:45;39.13;;;33.35;;
50575;SDS011;76633;45.642;12.198;2024-03-23T04:47:10;36.97;;;33.00;;
50575;SDS011;76633;45.642;12.198;2024-03-23T04:49:36;37.65;;;33.55;;
50575;SDS011;76633;45.642;12.198;2024-03-23T04:52:05;40.50;;;33.10;;
50575;SDS011;76633;45.642;12.198;2024-03-23T04:54:31;36.55;;;32.65;;
50575;SDS011;76633;45.642;12.198;2024-03-23T04:56:59;38.47;;;33.28;;
50575;SDS011;76633;45.642;12.198;2024-03-23T04:59:25;38.05;;;34.00;;
50575;SDS011;76633;45.642;12.198;2024-03-23T05:01:51;40.05;;;35.03;;
50575;SDS011;76633;45.642;12.198;2024-03-23T05:04:16;39.63;;;35.40;;
50575;SDS011;76633;45.642;12.198;2024-03-23T05:06:42;38.55;;;34.45;;
50575;SDS011;76633;45.642;12.198;2024-03-23T05:09:08;37.42;;;33.50;;
50575;SDS011;76633;45.642;12.198;2024-03-23T05:11:39;37.50;;;33.47;;
50575;SDS011;76633;45.642;12.198;2024-03-23T05:14:06;38.83;;;33.60;;
50575;SDS011;76633;45.642;12.198;2024-03-23T05:16:32;38.85;;;34.70;;
50575;SDS011;76633;45.642;12.198;2024-03-23T05:18:58;37.80;;;32.83;;
50575;SDS011;76633;45.642;12.198;2024-03-23T05:21:24;38.95;;;34.17;;
50575;SDS011;76633;45.642;12.198;2024-03-23T05:23:49;39.97;;;33.83;;
50575;SDS011;76633;45.642;12.198;2024-03-23T05:26:16;40.60;;;35.67;;
50575;SDS011;76633;45.642;12.198;2024-03-23T05:28:42;46.20;;;36.05;;
50575;SDS011;76633;45.642;12.198;2024-03-23T05:31:08;40.58;;;36.13;;
50575;SDS011;76633;45.642;12.198;2024-03-23T05:33:35;41.67;;;36.05;;
50575;SDS011;76633;45.642;12.198;2024-03-23T05:36:03;40.00;;;35.05;;
50575;SDS011;76633;45.642;12.198;2024-03-23T05:38:29;38.63;;;33.67;;
50575;SDS011;76633;45.642;12.198;2024-03-23T05:40:59;39.30;;;33.20;;
50575;SDS011;76633;45.642;12.198;2024-03-23T05:43:25;38.15;;;33.05;;
50575;SDS011;76633;45.642;12.198;2024-03-23T05:45:58;41.65;;;34.95;;
50575;SDS011;76633;45.642;12.198;2024-03-23T05:48:25;39.90;;;34.40;;
50575;SDS011;76633;45.642;12.198;2024-03-23T05:50:51;39.20;;;34.78;;
50575;SDS011;76633;45.642;12.198;2024-03-23T05:53:17;39.00;;;33.58;;
50575;SDS011;76633;45.642;12.198;2024-03-23T05:55:45;41.63;;;34.17;;
50575;SDS011;76633;45.642;12.198;2024-03-23T05:58:12;44.38;;;33.28;;
50575;SDS011;76633;45.642;12.198;2024-03-23T06:00:39;44.00;;;34.42;;
50575;SDS011;76633;45.642;12.198;2024-03-23T06:03:05;43.17;;;36.00;;
50575;SDS011;76633;45.642;12.198;2024-03-23T06:05:31;38.35;;;34.25;;
50575;SDS011;76633;45.642;12.198;2024-03-23T06:07:57;39.20;;;34.08;;
50575;SDS011;76633;45.642;12.198;2024-03-23T06:10:22;37.42;;;33.28;;
50575;SDS011;76633;45.642;12.198;2024-03-23T06:12:48;38.15;;;32.88;;
50575;SDS011;76633;45.642;12.198;2024-03-23T06:15:16;38.75;;;33.67;;
50575;SDS011;76633;45.642;12.198;2024-03-23T06:17:46;40.42;;;33.53;;
50575;SDS011;76633;45.642;12.198;2024-03-23T06:20:12;39.72;;;32.45;;
50575;SDS011;76633;45.642;12.198;2024-03-23T06:22:38;36.88;;;32.35;;
50575;SDS011;76633;45.642;12.198;2024-03-23T06:25:04;36.88;;;32.92;;
50575;SDS011;76633;45.642;12.198;2024-03-23T06:27:30;34.70;;;30.45;;
50575;SDS011;76633;45.642;12.198;2024-03-23T06:29:57;36.97;;;32.97;;
50575;SDS011;76633;45.642;12.198;2024-03-23T06:32:23;35.63;;;31.50;;
50575;SDS011;76633;45.642;12.198;2024-03-23T06:34:49;36.38;;;30.90;;
50575;SDS011;76633;45.642;12.198;2024-03-23T06:37:14;36.92;;;32.00;;
50575;SDS011;76633;45.642;12.198;2024-03-23T06:39:40;47.85;;;39.88;;
50575;SDS011;76633;45.642;12.198;2024-03-23T06:42:07;45.03;;;37.58;;
50575;SDS011;76633;45.642;12.198;2024-03-23T06:44:33;46.45;;;35.00;;
50575;SDS011;76633;45.642;12.198;2024-03-23T06:46:59;37.45;;;32.85;;
50575;SDS011;76633;45.642;12.198;2024-03-23T06:49:24;39.70;;;33.22;;
50575;SDS011;76633;45.642;12.198;2024-03-23T06:51:50;35.97;;;32.00;;
50575;SDS011;76633;45.642;12.198;2024-03-23T06:54:17;38.03;;;32.38;;
50575;SDS011;76633;45.642;12.198;2024-03-23T06:56:46;38.17;;;31.80;;
50575;SDS011;76633;45.642;12.198;2024-03-23T06:59:11;35.03;;;30.27;;
50575;SDS011;76633;45.642;12.198;2024-03-23T07:01:37;37.25;;;30.63;;
50575;SDS011;76633;45.642;12.198;2024-03-23T07:04:03;34.95;;;29.73;;
50575;SDS011;76633;45.642;12.198;2024-03-23T07:06:30;34.47;;;30.52;;
50575;SDS011;76633;45.642;12.198;2024-03-23T07:08:56;34.30;;;30.58;;
50575;SDS011;76633;45.642;12.198;2024-03-23T07:11:22;35.95;;;29.73;;
50575;SDS011;76633;45.642;12.198;2024-03-23T07:13:51;36.20;;;29.15;;
50575;SDS011;76633;45.642;12.198;2024-03-23T07:16:19;37.50;;;30.20;;
50575;SDS011;76633;45.642;12.198;2024-03-23T07:18:45;36.50;;;31.48;;
50575;SDS011;76633;45.642;12.198;2024-03-23T07:21:11;34.53;;;29.17;;
50575;SDS011;76633;45.642;12.198;2024-03-23T07:23:37;32.15;;;28.60;;
50575;SDS011;76633;45.642;12.198;2024-03-23T07:26:07;33.45;;;29.65;;
50575;SDS011;76633;45.642;12.198;2024-03-23T07:28:33;31.20;;;27.77;;
50575;SDS011;76633;45.642;12.198;2024-03-23T07:31:18;31.75;;;28.20;;
50575;SDS011;76633;45.642;12.198;2024-03-23T07:36:10;33.28;;;29.73;;
50575;SDS011;76633;45.642;12.198;2024-03-23T07:38:36;33.55;;;28.98;;
50575;SDS011;76633;45.642;12.198;2024-03-23T07:41:06;34.67;;;29.17;;
50575;SDS011;76633;45.642;12.198;2024-03-23T07:43:36;34.60;;;28.50;;
50575;SDS011;76633;45.642;12.198;2024-03-23T07:46:03;33.22;;;29.02;;
50575;SDS011;76633;45.642;12.198;2024-03-23T07:48:30;31.30;;;27.95;;
50575;SDS011;76633;45.642;12.198;2024-03-23T07:51:00;39.03;;;28.63;;
50575;SDS011;76633;45.642;12.198;2024-03-23T07:53:30;30.77;;;27.38;;
50575;SDS011;76633;45.642;12.198;2024-03-23T07:56:01;35.38;;;28.23;;
50575;SDS011;76633;45.642;12.198;2024-03-23T07:58:35;34.60;;;29.35;;
50575;SDS011;76633;45.642;12.198;2024-03-23T08:03:33;32.20;;;28.80;;
50575;SDS011;76633;45.642;12.198;2024-03-23T08:06:12;31.73;;;27.90;;
50575;SDS011;76633;45.642;12.198;2024-03-23T08:08:40;30.38;;;27.10;;
50575;SDS011;76633;45.642;12.198;2024-03-23T08:11:07;30.48;;;27.17;;
50575;SDS011;76633;45.642;12.198;2024-03-23T08:13:33;30.70;;;27.50;;
50575;SDS011;76633;45.642;12.198;2024-03-23T08:16:00;30.02;;;27.05;;
50575;SDS011;76633;45.642;12.198;2024-03-23T08:18:27;31.67;;;28.08;;
50575;SDS011;76633;45.642;12.198;2024-03-23T08:21:03;31.95;;;28.27;;
50575;SDS011;76633;45.642;12.198;2024-03-23T08:23:32;32.58;;;29.15;;
50575;SDS011;76633;45.642;12.198;2024-03-23T08:26:01;38.00;;;33.15;;
50575;SDS011;76633;45.642;12.198;2024-03-23T08:28:27;30.08;;;26.88;;
50575;SDS011;76633;45.642;12.198;2024-03-23T08:30:54;29.92;;;26.83;;
50575;SDS011;76633;45.642;12.198;2024-03-23T08:33:20;30.05;;;26.95;;
50575;SDS011;76633;45.642;12.198;2024-03-23T08:35:56;29.98;;;26.73;;
50575;SDS011;76633;45.642;12.198;2024-03-23T08:38:40;31.15;;;27.85;;
50575;SDS011;76633;45.642;12.198;2024-03-23T08:41:06;30.77;;;26.25;;
50575;SDS011;76633;45.642;12.198;2024-03-23T08:43:37;30.17;;;26.90;;
50575;SDS011;76633;45.642;12.198;2024-03-23T08:46:04;28.90;;;25.88;;
50575;SDS011;76633;45.642;12.198;2024-03-23T08:48:34;29.67;;;26.50;;
50575;SDS011;76633;45.642;12.198;2024-03-23T08:51:04;30.85;;;27.52;;
50575;SDS011;76633;45.642;12.198;2024-03-23T08:53:31;30.77;;;27.50;;
50575;SDS011;76633;45.642;12.198;2024-03-23T08:55:57;32.40;;;28.23;;
50575;SDS011;76633;45.642;12.198;2024-03-23T08:58:24;31.08;;;27.77;;
50575;SDS011;76633;45.642;12.198;2024-03-23T09:00:51;31.83;;;28.45;;
50575;SDS011;76633;45.642;12.198;2024-03-23T09:03:17;33.55;;;30.15;;
50575;SDS011;76633;45.642;12.198;2024-03-23T09:05:43;35.35;;;31.52;;
50575;SDS011;76633;45.642;12.198;2024-03-23T09:08:09;38.40;;;34.50;;
50575;SDS011;76633;45.642;12.198;2024-03-23T09:10:39;36.90;;;32.80;;
50575;SDS011;76633;45.642;12.198;2024-03-23T09:13:05;42.25;;;33.28;;
50575;SDS011;76633;45.642;12.198;2024-03-23T09:15:31;38.88;;;34.67;;
50575;SDS011;76633;45.642;12.198;2024-03-23T09:18:00;40.42;;;36.05;;
50575;SDS011;76633;45.642;12.198;2024-03-23T09:20:26;40.15;;;36.15;;
50575;SDS011;76633;45.642;12.198;2024-03-23T09:22:52;40.22;;;36.03;;
50575;SDS011;76633;45.642;12.198;2024-03-23T09:25:18;39.35;;;35.30;;
50575;SDS011;76633;45.642;12.198;2024-03-23T09:27:45;40.35;;;36.03;;
50575;SDS011;76633;45.642;12.198;2024-03-23T09:30:12;39.28;;;35.03;;
50575;SDS011;76633;45.642;12.198;2024-03-23T09:32:38;38.58;;;34.45;;
50575;SDS011;76633;45.642;12.198;2024-03-23T09:35:04;37.72;;;33.72;;
50575;SDS011;76633;45.642;12.198;2024-03-23T09:37:30;35.53;;;31.60;;
50575;SDS011;76633;45.642;12.198;2024-03-23T09:39:56;38.90;;;32.63;;
50575;SDS011;76633;45.642;12.198;2024-03-23T09:42:21;36.60;;;31.88;;
50575;SDS011;76633;45.642;12.198;2024-03-23T09:44:47;37.13;;;32.70;;
50575;SDS011;76633;45.642;12.198;2024-03-23T09:47:16;35.65;;;31.20;;
50575;SDS011;76633;45.642;12.198;2024-03-23T09:49:42;36.13;;;32.38;;
50575;SDS011;76633;45.642;12.198;2024-03-23T09:52:08;34.78;;;31.10;;
50575;SDS011;76633;45.642;12.198;2024-03-23T09:54:34;34.15;;;30.75;;
50575;SDS011;76633;45.642;12.198;2024-03-23T09:57:00;33.08;;;29.58;;
50575;SDS011;76633;45.642;12.198;2024-03-23T09:59:26;32.13;;;28.55;;
50575;SDS011;76633;45.642;12.198;2024-03-23T10:01:54;31.25;;;27.98;;
50575;SDS011;76633;45.642;12.198;2024-03-23T10:04:36;30.45;;;27.17;;
50575;SDS011;76633;45.642;12.198;2024-03-23T10:07:15;31.50;;;28.25;;
50575;SDS011;76633;45.642;12.198;2024-03-23T10:09:45;30.73;;;27.38;;
50575;SDS011;76633;45.642;12.198;2024-03-23T10:12:18;28.63;;;25.58;;
50575;SDS011;76633;45.642;12.198;2024-03-23T10:14:44;26.20;;;23.60;;
50575;SDS011;76633;45.642;12.198;2024-03-23T10:17:12;26.83;;;23.92;;
50575;SDS011;76633;45.642;12.198;2024-03-23T10:19:47;26.42;;;23.80;;
50575;SDS011;76633;45.642;12.198;2024-03-23T10:24:43;24.13;;;21.60;;
50575;SDS011;76633;45.642;12.198;2024-03-23T10:27:08;23.65;;;21.25;;
50575;SDS011;76633;45.642;12.198;2024-03-23T10:29:34;23.15;;;20.65;;
50575;SDS011;76633;45.642;12.198;2024-03-23T10:32:10;21.48;;;19.15;;
50575;SDS011;76633;45.642;12.198;2024-03-23T10:34:37;20.80;;;18.67;;
50575;SDS011;76633;45.642;12.198;2024-03-23T10:37:03;22.17;;;20.08;;
50575;SDS011;76633;45.642;12.198;2024-03-23T10:39:33;22.98;;;20.85;;
50575;SDS011;76633;45.642;12.198;2024-03-23T10:42:04;22.92;;;20.80;;
50575;SDS011;76633;45.642;12.198;2024-03-23T10:44:31;23.00;;;20.67;;
50575;SDS011;76633;45.642;12.198;2024-03-23T10:46:58;22.25;;;20.23;;
50575;SDS011;76633;45.642;12.198;2024-03-23T10:49:34;22.92;;;20.80;;
50575;SDS011;76633;45.642;12.198;2024-03-23T10:52:04;20.63;;;19.00;;
50575;SDS011;76633;45.642;12.198;2024-03-23T10:54:31;21.75;;;19.98;;
50575;SDS011;76633;45.642;12.198;2024-03-23T10:59:32;19.40;;;17.90;;
50575;SDS011;76633;45.642;12.198;2024-03-23T11:02:00;19.80;;;18.13;;
50575;SDS011;76633;45.642;12.198;2024-03-23T11:04:34;19.85;;;18.25;;
50575;SDS011;76633;45.642;12.198;2024-03-23T11:07:03;18.60;;;17.20;;
50575;SDS011;76633;45.642;12.198;2024-03-23T11:09:48;17.25;;;15.95;;
50575;SDS011;76633;45.642;12.198;2024-03-23T11:14:46;15.82;;;14.52;;
50575;SDS011;76633;45.642;12.198;2024-03-23T11:17:19;17.50;;;16.02;;
50575;SDS011;76633;45.642;12.198;2024-03-23T11:19:52;16.58;;;15.27;;
50575;SDS011;76633;45.642;12.198;2024-03-23T11:22:39;16.33;;;15.02;;
50575;SDS011;76633;45.642;12.198;2024-03-23T11:25:14;15.23;;;14.10;;
50575;SDS011;76633;45.642;12.198;2024-03-23T11:27:51;14.52;;;13.43;;
50575;SDS011;76633;45.642;12.198;2024-03-23T11:30:21;15.05;;;13.85;;
50575;SDS011;76633;45.642;12.198;2024-03-23T11:32:49;16.17;;;14.98;;
50575;SDS011;76633;45.642;12.198;2024-03-23T11:38:03;14.45;;;13.45;;
50575;SDS011;76633;45.642;12.198;2024-03-23T11:40:29;16.35;;;14.80;;
50575;SDS011;76633;45.642;12.198;2024-03-23T11:42:59;14.10;;;13.00;;
50575;SDS011;76633;45.642;12.198;2024-03-23T11:45:26;13.90;;;12.80;;
50575;SDS011;76633;45.642;12.198;2024-03-23T11:48:06;16.35;;;15.15;;
50575;SDS011;76633;45.642;12.198;2024-03-23T11:50:42;16.58;;;15.27;;
50575;SDS011;76633;45.642;12.198;2024-03-23T11:53:11;17.48;;;16.08;;
50575;SDS011;76633;45.642;12.198;2024-03-23T11:55:51;17.85;;;16.45;;
50575;SDS011;76633;45.642;12.198;2024-03-23T11:58:18;17.63;;;16.33;;
50575;SDS011;76633;45.642;12.198;2024-03-23T12:00:54;16.40;;;15.18;;
50575;SDS011;76633;45.642;12.198;2024-03-23T12:03:24;16.98;;;15.68;;
50575;SDS011;76633;45.642;12.198;2024-03-23T12:05:54;18.25;;;16.63;;
50575;SDS011;76633;45.642;12.198;2024-03-23T12:10:50;19.58;;;17.95;;
50575;SDS011;76633;45.642;12.198;2024-03-23T12:13:16;22.10;;;20.50;;
50575;SDS011;76633;45.642;12.198;2024-03-23T12:15:47;22.27;;;20.17;;
50575;SDS011;76633;45.642;12.198;2024-03-23T12:18:14;24.23;;;22.13;;
50575;SDS011;76633;45.642;12.198;2024-03-23T12:20:40;23.67;;;21.58;;
50575;SDS011;76633;45.642;12.198;2024-03-23T12:23:07;24.52;;;22.60;;
50575;SDS011;76633;45.642;12.198;2024-03-23T12:25:33;23.02;;;21.17;;
50575;SDS011;76633;45.642;12.198;2024-03-23T12:28:00;23.25;;;21.38;;
50575;SDS011;76633;45.642;12.198;2024-03-23T12:30:25;24.20;;;22.25;;
50575;SDS011;76633;45.642;12.198;2024-03-23T12:32:51;24.38;;;22.30;;
50575;SDS011;76633;45.642;12.198;2024-03-23T12:35:17;22.73;;;20.83;;
50575;SDS011;76633;45.642;12.198;2024-03-23T12:37:43;21.40;;;19.60;;
50575;SDS011;76633;45.642;12.198;2024-03-23T12:40:09;21.35;;;19.65;;
50575;SDS011;76633;45.642;12.198;2024-03-23T12:42:35;21.40;;;19.67;;
50575;SDS011;76633;45.642;12.198;2024-03-23T12:45:00;21.10;;;19.20;;
50575;SDS011;76633;45.642;12.198;2024-03-23T12:47:26;21.48;;;19.65;;
50575;SDS011;76633;45.642;12.198;2024-03-23T12:49:52;20.35;;;18.67;;
50575;SDS011;76633;45.642;12.198;2024-03-23T12:52:18;21.02;;;19.33;;
50575;SDS011;76633;45.642;12.198;2024-03-23T12:54:46;21.27;;;19.58;;
50575;SDS011;76633;45.642;12.198;2024-03-23T12:57:12;20.20;;;18.50;;
50575;SDS011;76633;45.642;12.198;2024-03-23T12:59:37;20.77;;;19.17;;
50575;SDS011;76633;45.642;12.198;2024-03-23T13:02:03;21.50;;;19.85;;
50575;SDS011;76633;45.642;12.198;2024-03-23T13:04:29;21.83;;;20.10;;
50575;SDS011;76633;45.642;12.198;2024-03-23T13:06:54;21.67;;;19.98;;
50575;SDS011;76633;45.642;12.198;2024-03-23T13:09:21;21.65;;;19.92;;
50575;SDS011;76633;45.642;12.198;2024-03-23T13:11:46;21.63;;;19.85;;
50575;SDS011;76633;45.642;12.198;2024-03-23T13:14:12;20.00;;;18.40;;
50575;SDS011;76633;45.642;12.198;2024-03-23T13:16:39;22.45;;;20.55;;
50575;SDS011;76633;45.642;12.198;2024-03-23T13:19:05;20.48;;;18.77;;
50575;SDS011;76633;45.642;12.198;2024-03-23T13:21:31;21.73;;;19.98;;
50575;SDS011;76633;45.642;12.198;2024-03-23T13:23:56;20.30;;;18.58;;
50575;SDS011;76633;45.642;12.198;2024-03-23T13:26:22;20.35;;;18.75;;
50575;SDS011;76633;45.642;12.198;2024-03-23T13:28:48;19.63;;;17.80;;
50575;SDS011;76633;45.642;12.198;2024-03-23T13:31:13;22.55;;;20.65;;
50575;SDS011;76633;45.642;12.198;2024-03-23T13:33:39;21.67;;;20.05;;
50575;SDS011;76633;45.642;12.198;2024-03-23T13:36:07;21.52;;;19.75;;
50575;SDS011;76633;45.642;12.198;2024-03-23T13:38:33;20.17;;;18.58;;
50575;SDS011;76633;45.642;12.198;2024-03-23T13:40:59;22.00;;;20.30;;
50575;SDS011;76633;45.642;12.198;2024-03-23T13:43:26;23.73;;;21.65;;
50575;SDS011;76633;45.642;12.198;2024-03-23T13:45:56;26.00;;;23.75;;
50575;SDS011;76633;45.642;12.198;2024-03-23T13:48:23;23.90;;;21.80;;
50575;SDS011;76633;45.642;12.198;2024-03-23T13:50:59;24.42;;;22.40;;
50575;SDS011;76633;45.642;12.198;2024-03-23T13:53:25;25.65;;;23.55;;
50575;SDS011;76633;45.642;12.198;2024-03-23T13:55:51;25.52;;;23.23;;
50575;SDS011;76633;45.642;12.198;2024-03-23T13:58:17;24.15;;;22.05;;
50575;SDS011;76633;45.642;12.198;2024-03-23T14:00:43;26.02;;;23.48;;
50575;SDS011;76633;45.642;12.198;2024-03-23T14:19:47;25.92;;;23.52;;
50575;SDS011;76633;45.642;12.198;2024-03-23T14:22:13;28.77;;;26.02;;
50575;SDS011;76633;45.642;12.198;2024-03-23T14:24:39;29.88;;;26.88;;
50575;SDS011;76633;45.642;12.198;2024-03-23T14:27:05;28.90;;;25.95;;
50575;SDS011;76633;45.642;12.198;2024-03-23T14:29:32;28.83;;;25.80;;
50575;SDS011;76633;45.642;12.198;2024-03-23T14:31:59;27.55;;;24.85;;
50575;SDS011;76633;45.642;12.198;2024-03-23T14:34:26;30.50;;;27.23;;
50575;SDS011;76633;45.642;12.198;2024-03-23T14:36:53;31.42;;;28.23;;
50575;SDS011;76633;45.642;12.198;2024-03-23T14:39:22;29.60;;;26.60;;
50575;SDS011;76633;45.642;12.198;2024-03-23T14:41:51;30.42;;;27.23;;
50575;SDS011;76633;45.642;12.198;2024-03-23T14:44:17;30.77;;;27.63;;
50575;SDS011;76633;45.642;12.198;2024-03-23T14:46:42;29.85;;;26.85;;
50575;SDS011;76633;45.642;12.198;2024-03-23T14:49:08;30.27;;;27.23;;
50575;SDS011;76633;45.642;12.198;2024-03-23T14:51:34;30.60;;;27.38;;
50575;SDS011;76633;45.642;12.198;2024-03-23T14:53:59;29.15;;;26.25;;
50575;SDS011;76633;45.642;12.198;2024-03-23T14:56:25;29.45;;;26.65;;
50575;SDS011;76633;45.642;12.198;2024-03-23T14:58:54;30.90;;;27.77;;
50575;SDS011;76633;45.642;12.198;2024-03-23T15:01:21;30.88;;;27.73;;
50575;SDS011;76633;45.642;12.198;2024-03-23T15:03:47;31.02;;;27.65;;
50575;SDS011;76633;45.642;12.198;2024-03-23T15:06:12;30.50;;;27.35;;
50575;SDS011;76633;45.642;12.198;2024-03-23T15:08:38;30.20;;;27.05;;
50575;SDS011;76633;45.642;12.198;2024-03-23T15:11:05;29.83;;;26.65;;
50575;SDS011;76633;45.642;12.198;2024-03-23T15:13:32;30.98;;;27.75;;
50575;SDS011;76633;45.642;12.198;2024-03-23T15:15:58;32.42;;;29.08;;
50575;SDS011;76633;45.642;12.198;2024-03-23T15:18:24;35.78;;;31.50;;
50575;SDS011;76633;45.642;12.198;2024-03-23T15:20:55;37.08;;;33.08;;
50575;SDS011;76633;45.642;12.198;2024-03-23T15:23:21;34.90;;;30.73;;
50575;SDS011;76633;45.642;12.198;2024-03-23T15:25:57;47.17;;;37.53;;
50575;SDS011;76633;45.642;12.198;2024-03-23T15:28:23;36.70;;;31.60;;
50575;SDS011;76633;45.642;12.198;2024-03-23T15:30:51;35.75;;;31.75;;
50575;SDS011;76633;45.642;12.198;2024-03-23T15:33:17;32.13;;;28.88;;
50575;SDS011;76633;45.642;12.198;2024-03-23T15:35:42;30.92;;;27.77;;
50575;SDS011;76633;45.642;12.198;2024-03-23T15:38:08;31.40;;;28.33;;